sensor_id;sensor_type;location;lat;lon;timestamp;pressure;altitude;pressure_sealevel;temperature;humidity
69955;BME280;57279;55.912;37.490;2022-10-24T00:00:42;98496.53;;;5.62;81.41
69955;BME280;57279;55.912;37.490;2022-10-24T00:03:08;98505.69;;;5.66;80.90
69955;BME280;57279;55.912;37.490;2022-10-24T00:05:34;98500.34;;;5.66;80.78
69955;BME280;57279;55.912;37.490;2022-10-24T00:07:59;98505.06;;;5.59;80.28
69955;BME280;57279;55.912;37.490;2022-10-24T00:10:25;98498.28;;;5.52;80.38
69955;BME280;57279;55.912;37.490;2022-10-24T00:12:54;98498.28;;;5.52;80.68
69955;BME280;57279;55.912;37.490;2022-10-24T00:15:20;98502.38;;;5.59;80.72
69955;BME280;57279;55.912;37.490;2022-10-24T00:17:46;98494.88;;;5.56;80.36
69955;BME280;57279;55.912;37.490;2022-10-24T00:20:11;98493.25;;;5.55;80.58
69955;BME280;57279;55.912;37.490;2022-10-24T00:22:37;98493.63;;;5.64;80.56
69955;BME280;57279;55.912;37.490;2022-10-24T00:25:03;98493.19;;;5.72;80.12
69955;BME280;57279;55.912;37.490;2022-10-24T00:27:29;98491.13;;;5.79;80.21
69955;BME280;57279;55.912;37.490;2022-10-24T00:29:55;98495.06;;;5.72;79.67
69955;BME280;57279;55.912;37.490;2022-10-24T00:32:20;98487.25;;;5.48;79.79
69955;BME280;57279;55.912;37.490;2022-10-24T00:34:46;98484.31;;;5.49;79.94
69955;BME280;57279;55.912;37.490;2022-10-24T00:37:12;98490.31;;;5.57;79.85
69955;BME280;57279;55.912;37.490;2022-10-24T00:39:38;98492.13;;;5.51;80.02
69955;BME280;57279;55.912;37.490;2022-10-24T00:42:03;98489.69;;;5.49;80.23
69955;BME280;57279;55.912;37.490;2022-10-24T00:44:50;98478.13;;;5.27;80.04
69955;BME280;57279;55.912;37.490;2022-10-24T00:47:19;98484.38;;;5.33;80.31
69955;BME280;57279;55.912;37.490;2022-10-24T00:52:29;98475.84;;;5.36;79.98
69955;BME280;57279;55.912;37.490;2022-10-24T00:54:58;98479.31;;;5.14;80.15
69955;BME280;57279;55.912;37.490;2022-10-24T00:57:35;98474.91;;;5.25;80.67
69955;BME280;57279;55.912;37.490;2022-10-24T01:00:12;98477.88;;;5.28;80.61
69955;BME280;57279;55.912;37.490;2022-10-24T01:02:38;98474.75;;;5.15;80.37
69955;BME280;57279;55.912;37.490;2022-10-24T01:05:05;98477.88;;;5.28;80.12
69955;BME280;57279;55.912;37.490;2022-10-24T01:10:07;98481.34;;;5.07;80.57
69955;BME280;57279;55.912;37.490;2022-10-24T01:28:24;98491.06;;;5.13;80.08
69955;BME280;57279;55.912;37.490;2022-10-24T01:30:56;98491.16;;;5.01;80.11
69955;BME280;57279;55.912;37.490;2022-10-24T01:33:31;98487.16;;;5.04;80.63
69955;BME280;57279;55.912;37.490;2022-10-24T01:36:04;98490.97;;;5.08;80.10
69955;BME280;57279;55.912;37.490;2022-10-24T01:38:36;98489.44;;;5.12;80.29
69955;BME280;57279;55.912;37.490;2022-10-24T01:41:19;98492.59;;;5.09;80.00
69955;BME280;57279;55.912;37.490;2022-10-24T01:43:54;98490.59;;;4.99;80.61
69955;BME280;57279;55.912;37.490;2022-10-24T01:46:28;98488.63;;;4.78;80.58
69955;BME280;57279;55.912;37.490;2022-10-24T01:48:59;98486.47;;;4.75;80.76
69955;BME280;57279;55.912;37.490;2022-10-24T01:51:29;98480.38;;;4.79;81.09
69955;BME280;57279;55.912;37.490;2022-10-24T01:53:56;98485.63;;;4.91;81.24
69955;BME280;57279;55.912;37.490;2022-10-24T01:56:25;98489.13;;;4.92;80.49
69955;BME280;57279;55.912;37.490;2022-10-24T01:58:51;98488.16;;;4.98;80.85
69955;BME280;57279;55.912;37.490;2022-10-24T02:01:21;98496.09;;;4.93;80.13
69955;BME280;57279;55.912;37.490;2022-10-24T02:03:57;98499.28;;;4.89;80.30
69955;BME280;57279;55.912;37.490;2022-10-24T02:06:31;98494.72;;;4.90;80.49
69955;BME280;57279;55.912;37.490;2022-10-24T02:09:03;98501.44;;;4.93;80.25
69955;BME280;57279;55.912;37.490;2022-10-24T02:11:32;98505.00;;;4.81;80.69
69955;BME280;57279;55.912;37.490;2022-10-24T02:14:04;98505.19;;;4.92;80.60
69955;BME280;57279;55.912;37.490;2022-10-24T02:16:32;98507.88;;;4.92;80.07
69955;BME280;57279;55.912;37.490;2022-10-24T02:18:59;98505.19;;;4.92;80.46
69955;BME280;57279;55.912;37.490;2022-10-24T02:21:51;98502.75;;;4.90;80.67
69955;BME280;57279;55.912;37.490;2022-10-24T02:24:30;98498.78;;;4.93;80.62
69955;BME280;57279;55.912;37.490;2022-10-24T02:27:20;98497.06;;;4.69;80.92
69955;BME280;57279;55.912;37.490;2022-10-24T02:30:15;98508.44;;;4.77;81.44
69955;BME280;57279;55.912;37.490;2022-10-24T02:32:44;98507.53;;;4.71;81.52
69955;BME280;57279;55.912;37.490;2022-10-24T02:35:14;98515.16;;;4.79;81.35
69955;BME280;57279;55.912;37.490;2022-10-24T02:37:46;98514.41;;;4.67;81.90
69955;BME280;57279;55.912;37.490;2022-10-24T02:40:15;98517.66;;;4.69;81.74
69955;BME280;57279;55.912;37.490;2022-10-24T02:42:44;98506.94;;;4.52;82.22
69955;BME280;57279;55.912;37.490;2022-10-24T02:45:12;98519.97;;;4.48;82.63
69955;BME280;57279;55.912;37.490;2022-10-24T02:47:41;98518.44;;;4.53;82.92
69955;BME280;57279;55.912;37.490;2022-10-24T02:50:08;98521.28;;;4.46;82.67
69955;BME280;57279;55.912;37.490;2022-10-24T02:52:36;98529.22;;;4.58;82.79
69955;BME280;57279;55.912;37.490;2022-10-24T02:55:03;98530.59;;;4.60;82.59
69955;BME280;57279;55.912;37.490;2022-10-24T02:57:28;98530.84;;;4.59;82.87
69955;BME280;57279;55.912;37.490;2022-10-24T02:59:54;98540.22;;;4.44;82.63
69955;BME280;57279;55.912;37.490;2022-10-24T03:02:22;98528.22;;;4.47;82.86
69955;BME280;57279;55.912;37.490;2022-10-24T03:04:48;98538.63;;;4.60;82.65
69955;BME280;57279;55.912;37.490;2022-10-24T03:07:14;98535.94;;;4.60;82.91
69955;BME280;57279;55.912;37.490;2022-10-24T03:09:40;98545.84;;;4.60;83.00
69955;BME280;57279;55.912;37.490;2022-10-24T03:12:06;98543.56;;;4.52;82.98
69955;BME280;57279;55.912;37.490;2022-10-24T03:14:32;98545.75;;;4.55;83.01
69955;BME280;57279;55.912;37.490;2022-10-24T03:16:57;98537.72;;;4.55;82.84
69955;BME280;57279;55.912;37.490;2022-10-24T03:19:23;98549.56;;;4.59;82.83
69955;BME280;57279;55.912;37.490;2022-10-24T03:21:49;98554.59;;;4.55;83.07
69955;BME280;57279;55.912;37.490;2022-10-24T03:24:16;98563.56;;;4.49;83.31
69955;BME280;57279;55.912;37.490;2022-10-24T03:26:41;98561.31;;;4.58;83.45
69955;BME280;57279;55.912;37.490;2022-10-24T03:29:07;98561.22;;;4.53;83.06
69955;BME280;57279;55.912;37.490;2022-10-24T03:31:33;98559.22;;;4.60;83.08
69955;BME280;57279;55.912;37.490;2022-10-24T03:33:58;98554.91;;;4.59;83.19
69955;BME280;57279;55.912;37.490;2022-10-24T03:36:24;98563.81;;;4.64;83.29
69955;BME280;57279;55.912;37.490;2022-10-24T03:38:50;98562.75;;;4.48;83.65
69955;BME280;57279;55.912;37.490;2022-10-24T03:41:16;98569.06;;;4.42;83.84
69955;BME280;57279;55.912;37.490;2022-10-24T03:43:41;98564.63;;;4.48;84.22
69955;BME280;57279;55.912;37.490;2022-10-24T03:46:07;98568.56;;;4.45;84.03
69955;BME280;57279;55.912;37.490;2022-10-24T03:48:33;98571.41;;;4.39;84.34
69955;BME280;57279;55.912;37.490;2022-10-24T03:50:58;98573.59;;;4.42;84.43
69955;BME280;57279;55.912;37.490;2022-10-24T03:53:24;98576.13;;;4.48;84.69
69955;BME280;57279;55.912;37.490;2022-10-24T03:55:50;98578.78;;;4.48;84.58
69955;BME280;57279;55.912;37.490;2022-10-24T03:58:15;98573.66;;;4.47;84.53
69955;BME280;57279;55.912;37.490;2022-10-24T04:00:41;98576.34;;;4.47;84.54
69955;BME280;57279;55.912;37.490;2022-10-24T04:03:08;98573.78;;;4.52;84.34
69955;BME280;57279;55.912;37.490;2022-10-24T04:05:34;98586.81;;;4.48;84.67
69955;BME280;57279;55.912;37.490;2022-10-24T04:08:01;98580.16;;;4.51;84.59
69955;BME280;57279;55.912;37.490;2022-10-24T04:10:26;98582.69;;;4.58;84.44
69955;BME280;57279;55.912;37.490;2022-10-24T04:12:52;98592.34;;;4.59;84.54
69955;BME280;57279;55.912;37.490;2022-10-24T04:15:18;98593.50;;;4.63;84.70
69955;BME280;57279;55.912;37.490;2022-10-24T04:17:44;98584.06;;;4.60;84.60
69955;BME280;57279;55.912;37.490;2022-10-24T04:20:10;98590.81;;;4.63;84.61
69955;BME280;57279;55.912;37.490;2022-10-24T04:22:36;98591.41;;;4.65;84.04
69955;BME280;57279;55.912;37.490;2022-10-24T04:25:02;98587.66;;;4.66;84.32
69955;BME280;57279;55.912;37.490;2022-10-24T04:27:28;98597.38;;;4.72;84.68
69955;BME280;57279;55.912;37.490;2022-10-24T04:29:54;98596.13;;;4.75;84.22
69955;BME280;57279;55.912;37.490;2022-10-24T04:32:19;98605.03;;;4.80;83.80
69955;BME280;57279;55.912;37.490;2022-10-24T04:34:45;98612.06;;;4.69;83.86
69955;BME280;57279;55.912;37.490;2022-10-24T04:37:11;98613.97;;;4.57;84.10
69955;BME280;57279;55.912;37.490;2022-10-24T04:39:36;98615.94;;;4.62;84.46
69955;BME280;57279;55.912;37.490;2022-10-24T04:42:02;98611.66;;;4.61;84.77
69955;BME280;57279;55.912;37.490;2022-10-24T04:44:28;98619.41;;;4.62;84.68
69955;BME280;57279;55.912;37.490;2022-10-24T04:46:54;98626.50;;;4.68;84.57
69955;BME280;57279;55.912;37.490;2022-10-24T04:49:19;98631.56;;;4.70;84.47
69955;BME280;57279;55.912;37.490;2022-10-24T04:51:45;98626.81;;;4.72;84.26
69955;BME280;57279;55.912;37.490;2022-10-24T04:54:10;98634.00;;;4.72;83.91
69955;BME280;57279;55.912;37.490;2022-10-24T04:56:36;98633.44;;;4.69;83.89
69955;BME280;57279;55.912;37.490;2022-10-24T04:59:02;98640.66;;;4.69;84.02
69955;BME280;57279;55.912;37.490;2022-10-24T05:01:28;98646.13;;;4.62;84.14
69955;BME280;57279;55.912;37.490;2022-10-24T05:03:53;98649.03;;;4.73;83.97
69955;BME280;57279;55.912;37.490;2022-10-24T05:06:19;98649.44;;;4.81;83.58
69955;BME280;57279;55.912;37.490;2022-10-24T05:08:44;98652.50;;;4.73;83.77
69955;BME280;57279;55.912;37.490;2022-10-24T05:11:10;98651.66;;;4.84;83.50
69955;BME280;57279;55.912;37.490;2022-10-24T05:13:37;98651.88;;;4.83;83.52
69955;BME280;57279;55.912;37.490;2022-10-24T05:16:04;98660.97;;;4.82;83.38
69955;BME280;57279;55.912;37.490;2022-10-24T05:18:29;98660.97;;;4.82;83.74
69955;BME280;57279;55.912;37.490;2022-10-24T05:20:56;98656.25;;;4.89;83.52
69955;BME280;57279;55.912;37.490;2022-10-24T05:23:22;98666.16;;;4.88;83.57
69955;BME280;57279;55.912;37.490;2022-10-24T05:25:48;98663.81;;;4.92;83.54
69955;BME280;57279;55.912;37.490;2022-10-24T05:28:13;98664.06;;;4.90;83.41
69955;BME280;57279;55.912;37.490;2022-10-24T05:30:42;98666.63;;;4.85;83.64
69955;BME280;57279;55.912;37.490;2022-10-24T05:33:07;98669.78;;;4.82;84.01
69955;BME280;57279;55.912;37.490;2022-10-24T05:35:33;98674.00;;;4.78;83.71
69955;BME280;57279;55.912;37.490;2022-10-24T05:37:59;98686.31;;;4.79;84.19
69955;BME280;57279;55.912;37.490;2022-10-24T05:40:24;98686.19;;;4.86;84.03
69955;BME280;57279;55.912;37.490;2022-10-24T05:42:50;98680.91;;;4.91;83.79
69955;BME280;57279;55.912;37.490;2022-10-24T05:45:17;98690.09;;;4.95;84.03
69955;BME280;57279;55.912;37.490;2022-10-24T05:47:43;98692.28;;;4.98;83.45
69955;BME280;57279;55.912;37.490;2022-10-24T05:50:09;98687.59;;;5.05;83.49
69955;BME280;57279;55.912;37.490;2022-10-24T05:52:35;98692.72;;;5.07;83.17
69955;BME280;57279;55.912;37.490;2022-10-24T05:55:03;98700.75;;;5.07;83.17
69955;BME280;57279;55.912;37.490;2022-10-24T05:57:29;98699.72;;;5.25;83.08
69955;BME280;57279;55.912;37.490;2022-10-24T05:59:55;98696.06;;;5.14;82.69
69955;BME280;57279;55.912;37.490;2022-10-24T06:02:21;98699.72;;;5.25;82.50
69955;BME280;57279;55.912;37.490;2022-10-24T06:04:46;98701.50;;;5.19;81.96
69955;BME280;57279;55.912;37.490;2022-10-24T06:07:13;98707.75;;;5.25;81.86
69955;BME280;57279;55.912;37.490;2022-10-24T06:09:39;98693.16;;;5.33;81.40
69955;BME280;57279;55.912;37.490;2022-10-24T06:12:07;98696.50;;;5.40;81.15
69955;BME280;57279;55.912;37.490;2022-10-24T06:14:35;98695.44;;;5.41;81.17
69955;BME280;57279;55.912;37.490;2022-10-24T06:17:01;98697.28;;;5.40;81.06
69955;BME280;57279;55.912;37.490;2022-10-24T06:19:26;98699.16;;;5.40;80.68
69955;BME280;57279;55.912;37.490;2022-10-24T06:21:52;98706.31;;;5.34;80.55
69955;BME280;57279;55.912;37.490;2022-10-24T06:24:18;98709.16;;;5.27;80.96
69955;BME280;57279;55.912;37.490;2022-10-24T06:26:43;98708.97;;;5.34;80.57
69955;BME280;57279;55.912;37.490;2022-10-24T06:29:10;98713.88;;;5.37;80.22
69955;BME280;57279;55.912;37.490;2022-10-24T06:31:35;98716.69;;;5.47;80.02
69955;BME280;57279;55.912;37.490;2022-10-24T06:34:02;98726.84;;;5.45;80.28
69955;BME280;57279;55.912;37.490;2022-10-24T06:36:28;98722.69;;;5.38;79.55
69955;BME280;57279;55.912;37.490;2022-10-24T06:38:54;98719.38;;;5.47;79.64
69955;BME280;57279;55.912;37.490;2022-10-24T06:41:19;98725.06;;;5.51;79.25
69955;BME280;57279;55.912;37.490;2022-10-24T06:43:45;98725.16;;;5.56;78.92
69955;BME280;57279;55.912;37.490;2022-10-24T06:46:13;98712.81;;;5.55;78.58
69955;BME280;57279;55.912;37.490;2022-10-24T06:48:39;98723.53;;;5.55;78.44
69955;BME280;57279;55.912;37.490;2022-10-24T06:51:05;98725.72;;;5.58;78.10
69955;BME280;57279;55.912;37.490;2022-10-24T06:53:31;98719.94;;;5.49;77.89
69955;BME280;57279;55.912;37.490;2022-10-24T06:56:01;98723.03;;;5.41;77.64
69955;BME280;57279;55.912;37.490;2022-10-24T06:58:31;98719.16;;;5.66;78.21
69955;BME280;57279;55.912;37.490;2022-10-24T07:00:57;98732.63;;;5.54;77.15
69955;BME280;57279;55.912;37.490;2022-10-24T07:03:23;98724.66;;;5.59;77.14
69955;BME280;57279;55.912;37.490;2022-10-24T07:05:48;98728.88;;;5.55;77.11
69955;BME280;57279;55.912;37.490;2022-10-24T07:08:14;98732.22;;;5.62;77.24
69955;BME280;57279;55.912;37.490;2022-10-24T07:10:40;98738.63;;;5.61;76.65
69955;BME280;57279;55.912;37.490;2022-10-24T07:13:06;98729.38;;;5.69;76.64
69955;BME280;57279;55.912;37.490;2022-10-24T07:15:31;98736.44;;;5.92;76.34
69955;BME280;57279;55.912;37.490;2022-10-24T07:17:57;98745.13;;;5.99;75.89
69955;BME280;57279;55.912;37.490;2022-10-24T07:20:23;98742.47;;;5.99;75.81
69955;BME280;57279;55.912;37.490;2022-10-24T07:22:49;98747.09;;;6.21;75.01
69955;BME280;57279;55.912;37.490;2022-10-24T07:25:14;98742.97;;;6.35;74.48
69955;BME280;57279;55.912;37.490;2022-10-24T07:27:40;98746.22;;;6.37;74.27
69955;BME280;57279;55.912;37.490;2022-10-24T07:30:07;98741.94;;;6.36;73.90
69955;BME280;57279;55.912;37.490;2022-10-24T07:32:33;98747.13;;;6.26;74.07
69955;BME280;57279;55.912;37.490;2022-10-24T07:34:59;98741.66;;;6.16;74.20
69955;BME280;57279;55.912;37.490;2022-10-24T07:37:25;98749.28;;;6.07;74.52
69955;BME280;57279;55.912;37.490;2022-10-24T07:39:51;98748.03;;;6.15;73.72
69955;BME280;57279;55.912;37.490;2022-10-24T07:42:16;98751.03;;;6.35;73.75
69955;BME280;57279;55.912;37.490;2022-10-24T07:44:43;98752.06;;;6.51;73.39
69955;BME280;57279;55.912;37.490;2022-10-24T07:47:10;98762.00;;;6.34;73.83
69955;BME280;57279;55.912;37.490;2022-10-24T07:49:36;98768.63;;;6.48;73.41
69955;BME280;57279;55.912;37.490;2022-10-24T07:52:02;98772.56;;;6.40;73.53
69955;BME280;57279;55.912;37.490;2022-10-24T07:54:27;98773.56;;;6.34;74.07
69955;BME280;57279;55.912;37.490;2022-10-24T07:56:54;98777.53;;;6.32;73.86
69955;BME280;57279;55.912;37.490;2022-10-24T07:59:20;98781.31;;;6.36;73.90
69955;BME280;57279;55.912;37.490;2022-10-24T08:01:45;98777.81;;;6.13;73.83
69955;BME280;57279;55.912;37.490;2022-10-24T08:04:11;98786.56;;;6.09;74.31
69955;BME280;57279;55.912;37.490;2022-10-24T08:06:38;98789.66;;;6.00;74.24
69955;BME280;57279;55.912;37.490;2022-10-24T08:09:07;98800.44;;;5.88;74.55
69955;BME280;57279;55.912;37.490;2022-10-24T08:11:33;98797.88;;;5.82;74.73
69955;BME280;57279;55.912;37.490;2022-10-24T08:13:58;98797.66;;;5.83;75.00
69955;BME280;57279;55.912;37.490;2022-10-24T08:16:26;98808.69;;;5.87;75.26
69955;BME280;57279;55.912;37.490;2022-10-24T08:18:55;98806.44;;;5.96;75.30
69955;BME280;57279;55.912;37.490;2022-10-24T08:21:22;98810.81;;;5.85;75.31
69955;BME280;57279;55.912;37.490;2022-10-24T08:23:50;98814.00;;;5.99;75.57
69955;BME280;57279;55.912;37.490;2022-10-24T08:26:18;98810.06;;;5.90;75.59
69955;BME280;57279;55.912;37.490;2022-10-24T08:28:44;98820.31;;;5.93;75.75
69955;BME280;57279;55.912;37.490;2022-10-24T08:31:17;98819.22;;;6.05;75.76
69955;BME280;57279;55.912;37.490;2022-10-24T08:33:44;98824.50;;;6.00;75.34
69955;BME280;57279;55.912;37.490;2022-10-24T08:36:28;98834.00;;;6.08;75.42
69955;BME280;57279;55.912;37.490;2022-10-24T08:38:54;98824.06;;;6.09;75.54
69955;BME280;57279;55.912;37.490;2022-10-24T08:43:52;98832.03;;;6.03;75.80
69955;BME280;57279;55.912;37.490;2022-10-24T08:48:52;98847.88;;;6.05;75.45
69955;BME280;57279;55.912;37.490;2022-10-24T08:54:00;98843.66;;;6.09;75.24
69955;BME280;57279;55.912;37.490;2022-10-24T08:56:28;98848.28;;;6.14;74.29
69955;BME280;57279;55.912;37.490;2022-10-24T08:58:57;98847.72;;;6.29;73.53
69955;BME280;57279;55.912;37.490;2022-10-24T09:01:31;98846.75;;;6.18;72.92
69955;BME280;57279;55.912;37.490;2022-10-24T09:04:04;98847.72;;;6.45;72.31
69955;BME280;57279;55.912;37.490;2022-10-24T09:06:32;98852.59;;;6.49;71.65
69955;BME280;57279;55.912;37.490;2022-10-24T09:09:03;98858.38;;;6.40;70.76
69955;BME280;57279;55.912;37.490;2022-10-24T09:11:52;98859.59;;;6.16;68.86
69955;BME280;57279;55.912;37.490;2022-10-24T09:14:32;98865.19;;;6.14;69.14
69955;BME280;57279;55.912;37.490;2022-10-24T09:19:34;98856.34;;;5.85;68.41
69955;BME280;57279;55.912;37.490;2022-10-24T09:22:01;98874.38;;;5.90;67.67
69955;BME280;57279;55.912;37.490;2022-10-24T09:24:45;98871.13;;;5.87;67.15
69955;BME280;57279;55.912;37.490;2022-10-24T09:27:24;98876.22;;;6.01;66.72
69955;BME280;57279;55.912;37.490;2022-10-24T09:29:51;98884.28;;;5.89;65.10
69955;BME280;57279;55.912;37.490;2022-10-24T09:32:21;98873.41;;;5.79;64.32
69955;BME280;57279;55.912;37.490;2022-10-24T09:34:48;98876.81;;;5.91;64.76
69955;BME280;57279;55.912;37.490;2022-10-24T09:37:38;98889.03;;;5.99;65.14
69955;BME280;57279;55.912;37.490;2022-10-24T09:42:38;98897.50;;;5.79;63.90
69955;BME280;57279;55.912;37.490;2022-10-24T09:45:38;98902.81;;;5.62;63.99
69955;BME280;57279;55.912;37.490;2022-10-24T09:50:43;98891.84;;;5.63;64.31
69955;BME280;57279;55.912;37.490;2022-10-24T09:53:24;98892.84;;;5.74;64.64
69955;BME280;57279;55.912;37.490;2022-10-24T09:56:06;98884.47;;;5.71;65.80
69955;BME280;57279;55.912;37.490;2022-10-24T09:58:32;98889.94;;;5.76;65.20
69955;BME280;57279;55.912;37.490;2022-10-24T10:03:24;98885.50;;;5.81;65.48
69955;BME280;57279;55.912;37.490;2022-10-24T10:06:01;98892.31;;;5.89;65.10
69955;BME280;57279;55.912;37.490;2022-10-24T10:08:30;98882.88;;;5.98;64.36
69955;BME280;57279;55.912;37.490;2022-10-24T10:13:28;98904.59;;;6.14;63.05
69955;BME280;57279;55.912;37.490;2022-10-24T10:15:55;98906.25;;;6.03;60.39
69955;BME280;57279;55.912;37.490;2022-10-24T10:18:43;98901.72;;;6.03;60.50
69955;BME280;57279;55.912;37.490;2022-10-24T10:21:16;98916.31;;;5.96;60.80
69955;BME280;57279;55.912;37.490;2022-10-24T10:26:27;98913.31;;;5.80;59.04
69955;BME280;57279;55.912;37.490;2022-10-24T10:28:59;98902.47;;;5.87;59.33
69955;BME280;57279;55.912;37.490;2022-10-24T10:31:27;98903.34;;;6.04;59.88
69955;BME280;57279;55.912;37.490;2022-10-24T10:34:21;98921.97;;;6.28;59.04
69955;BME280;57279;55.912;37.490;2022-10-24T10:40:17;98923.13;;;6.32;59.46
69955;BME280;57279;55.912;37.490;2022-10-24T10:45:33;98929.00;;;6.00;60.01
69955;BME280;57279;55.912;37.490;2022-10-24T10:50:53;98937.81;;;5.72;61.85
69955;BME280;57279;55.912;37.490;2022-10-24T11:08:07;98932.09;;;6.09;57.22
69955;BME280;57279;55.912;37.490;2022-10-24T11:10:37;98927.72;;;6.20;55.66
69955;BME280;57279;55.912;37.490;2022-10-24T11:13:13;98930.81;;;6.12;54.49
69955;BME280;57279;55.912;37.490;2022-10-24T11:15:45;98929.59;;;6.19;54.40
69955;BME280;57279;55.912;37.490;2022-10-24T11:18:27;98936.34;;;6.22;53.36
69955;BME280;57279;55.912;37.490;2022-10-24T11:21:15;98933.03;;;6.32;53.10
69955;BME280;57279;55.912;37.490;2022-10-24T11:23:48;98941.06;;;6.32;51.82
69955;BME280;57279;55.912;37.490;2022-10-24T11:28:58;98946.06;;;6.40;51.86
69955;BME280;57279;55.912;37.490;2022-10-24T11:31:49;98948.53;;;6.30;51.59
69955;BME280;57279;55.912;37.490;2022-10-24T11:34:34;98947.34;;;6.37;52.31
69955;BME280;57279;55.912;37.490;2022-10-24T11:37:05;98952.63;;;6.32;52.65
69955;BME280;57279;55.912;37.490;2022-10-24T11:39:48;98943.97;;;6.30;53.57
69955;BME280;57279;55.912;37.490;2022-10-24T11:45:14;98957.59;;;6.40;54.04
69955;BME280;57279;55.912;37.490;2022-10-24T11:52:42;98953.97;;;6.18;49.76
69955;BME280;57279;55.912;37.490;2022-10-24T11:55:17;98959.00;;;6.14;49.49
69955;BME280;57279;55.912;37.490;2022-10-24T11:57:46;98956.56;;;6.13;49.47
69955;BME280;57279;55.912;37.490;2022-10-24T12:00:23;98962.81;;;6.18;48.74
69955;BME280;57279;55.912;37.490;2022-10-24T12:06:43;98977.06;;;6.19;47.94
69955;BME280;57279;55.912;37.490;2022-10-24T12:18:50;98973.69;;;6.40;48.27
69955;BME280;57279;55.912;37.490;2022-10-24T12:21:24;98985.69;;;6.55;48.55
69955;BME280;57279;55.912;37.490;2022-10-24T12:23:58;98987.19;;;6.45;46.96
69955;BME280;57279;55.912;37.490;2022-10-24T12:26:32;98993.19;;;6.53;47.64
69955;BME280;57279;55.912;37.490;2022-10-24T12:29:00;98995.72;;;6.59;47.61
69955;BME280;57279;55.912;37.490;2022-10-24T12:31:31;98990.25;;;6.54;47.13
69955;BME280;57279;55.912;37.490;2022-10-24T12:39:41;99005.91;;;6.29;47.23
69955;BME280;57279;55.912;37.490;2022-10-24T12:47:42;99004.22;;;6.11;47.90
69955;BME280;57279;55.912;37.490;2022-10-24T12:53:14;99010.31;;;6.06;47.85
69955;BME280;57279;55.912;37.490;2022-10-24T13:00:56;99025.88;;;6.21;48.22
69955;BME280;57279;55.912;37.490;2022-10-24T13:21:16;99041.28;;;6.14;47.44
69955;BME280;57279;55.912;37.490;2022-10-24T13:23:46;99038.66;;;6.02;48.36
69955;BME280;57279;55.912;37.490;2022-10-24T13:26:34;99041.06;;;6.03;48.68
69955;BME280;57279;55.912;37.490;2022-10-24T13:29:01;99047.97;;;5.99;48.43
69955;BME280;57279;55.912;37.490;2022-10-24T13:34:12;99051.31;;;6.06;48.81
69955;BME280;57279;55.912;37.490;2022-10-24T13:36:38;99050.38;;;6.13;49.24
69955;BME280;57279;55.912;37.490;2022-10-24T13:39:09;99055.19;;;5.87;49.28
69955;BME280;57279;55.912;37.490;2022-10-24T13:41:40;99045.78;;;5.73;49.75
69955;BME280;57279;55.912;37.490;2022-10-24T13:46:48;99054.72;;;5.78;50.54
69955;BME280;57279;55.912;37.490;2022-10-24T13:49:20;99056.25;;;5.74;49.85
69955;BME280;57279;55.912;37.490;2022-10-24T13:51:50;99064.44;;;5.67;49.88
69955;BME280;57279;55.912;37.490;2022-10-24T13:54:23;99065.00;;;5.58;50.32
69955;BME280;57279;55.912;37.490;2022-10-24T13:56:52;99062.31;;;5.58;50.71
69955;BME280;57279;55.912;37.490;2022-10-24T13:59:36;99068.03;;;5.61;50.34
69955;BME280;57279;55.912;37.490;2022-10-24T14:02:05;99072.59;;;5.61;50.85
69955;BME280;57279;55.912;37.490;2022-10-24T14:04:32;99073.03;;;5.58;51.28
69955;BME280;57279;55.912;37.490;2022-10-24T14:07:04;99076.19;;;5.55;51.07
69955;BME280;57279;55.912;37.490;2022-10-24T14:09:40;99080.50;;;5.44;51.20
69955;BME280;57279;55.912;37.490;2022-10-24T14:12:17;99084.47;;;5.41;51.20
69955;BME280;57279;55.912;37.490;2022-10-24T14:14:46;99090.50;;;5.37;51.46
69955;BME280;57279;55.912;37.490;2022-10-24T14:19:55;99086.78;;;5.38;51.86
69955;BME280;57279;55.912;37.490;2022-10-24T14:22:34;99093.19;;;5.37;51.58
69955;BME280;57279;55.912;37.490;2022-10-24T14:25:00;99108.44;;;5.24;51.80
69955;BME280;57279;55.912;37.490;2022-10-24T14:27:26;99103.16;;;5.18;52.20
69955;BME280;57279;55.912;37.490;2022-10-24T14:29:58;99105.41;;;5.21;52.33
69955;BME280;57279;55.912;37.490;2022-10-24T14:32:25;99106.78;;;5.12;52.28
69955;BME280;57279;55.912;37.490;2022-10-24T14:34:53;99114.44;;;5.08;52.62
69955;BME280;57279;55.912;37.490;2022-10-24T14:37:31;99110.41;;;5.17;52.49
69955;BME280;57279;55.912;37.490;2022-10-24T14:39:58;99110.16;;;5.19;52.60
69955;BME280;57279;55.912;37.490;2022-10-24T14:42:25;99115.66;;;5.24;52.88
69955;BME280;57279;55.912;37.490;2022-10-24T14:44:51;99123.56;;;5.31;52.48
69955;BME280;57279;55.912;37.490;2022-10-24T14:47:24;99126.50;;;5.41;52.98
69955;BME280;57279;55.912;37.490;2022-10-24T14:49:51;99125.06;;;5.26;52.55
69955;BME280;57279;55.912;37.490;2022-10-24T14:52:27;99132.75;;;5.35;53.14
69955;BME280;57279;55.912;37.490;2022-10-24T14:55:05;99136.03;;;5.37;53.12
69955;BME280;57279;55.912;37.490;2022-10-24T14:57:33;99144.31;;;5.35;52.84
69955;BME280;57279;55.912;37.490;2022-10-24T15:00:05;99146.25;;;5.28;53.16
69955;BME280;57279;55.912;37.490;2022-10-24T15:02:38;99141.47;;;5.18;53.05
69955;BME280;57279;55.912;37.490;2022-10-24T15:07:41;99157.66;;;5.23;53.19
69955;BME280;57279;55.912;37.490;2022-10-24T15:17:44;99165.19;;;5.03;53.64
69955;BME280;57279;55.912;37.490;2022-10-24T15:20:18;99170.03;;;4.94;53.64
69955;BME280;57279;55.912;37.490;2022-10-24T15:22:54;99171.59;;;4.83;53.80
69955;BME280;57279;55.912;37.490;2022-10-24T15:25:26;99168.44;;;4.75;54.47
69955;BME280;57279;55.912;37.490;2022-10-24T15:27:54;99173.22;;;4.73;54.34
69955;BME280;57279;55.912;37.490;2022-10-24T15:30:30;99175.41;;;4.76;54.57
69955;BME280;57279;55.912;37.490;2022-10-24T15:32:58;99181.06;;;4.86;55.21
69955;BME280;57279;55.912;37.490;2022-10-24T15:35:24;99179.88;;;4.82;55.21
69955;BME280;57279;55.912;37.490;2022-10-24T15:37:53;99177.88;;;4.77;55.76